sensor_id;sensor_type;location;lat;lon;timestamp;temperature;humidity
26212;DHT22;13951;49.516;6.094;2023-12-14T00:01:53;7.70;99.90
26212;DHT22;13951;49.516;6.094;2023-12-14T00:04:26;7.80;99.90
26212;DHT22;13951;49.516;6.094;2023-12-14T00:07:00;7.70;99.90
26212;DHT22;13951;49.516;6.094;2023-12-14T00:09:34;7.70;99.90
26212;DHT22;13951;49.516;6.094;2023-12-14T00:12:07;7.70;99.90
26212;DHT22;13951;49.516;6.094;2023-12-14T00:14:40;7.70;99.90
26212;DHT22;13951;49.516;6.094;2023-12-14T00:17:14;7.70;99.90
26212;DHT22;13951;49.516;6.094;2023-12-14T00:19:47;7.70;99.90
26212;DHT22;13951;49.516;6.094;2023-12-14T00:22:20;7.70;99.90
26212;DHT22;13951;49.516;6.094;2023-12-14T00:24:54;7.70;99.90
26212;DHT22;13951;49.516;6.094;2023-12-14T00:27:28;7.70;99.90
26212;DHT22;13951;49.516;6.094;2023-12-14T00:30:02;7.70;99.90
26212;DHT22;13951;49.516;6.094;2023-12-14T00:32:35;7.70;99.90
26212;DHT22;13951;49.516;6.094;2023-12-14T00:35:09;7.70;99.90
26212;DHT22;13951;49.516;6.094;2023-12-14T00:37:42;7.70;99.90
26212;DHT22;13951;49.516;6.094;2023-12-14T00:40:16;7.70;99.90
26212;DHT22;13951;49.516;6.094;2023-12-14T00:42:49;7.70;99.90
26212;DHT22;13951;49.516;6.094;2023-12-14T00:45:22;7.70;99.90
26212;DHT22;13951;49.516;6.094;2023-12-14T00:47:56;7.70;99.90
26212;DHT22;13951;49.516;6.094;2023-12-14T00:50:29;7.70;99.90
26212;DHT22;13951;49.516;6.094;2023-12-14T00:53:02;7.70;99.90
26212;DHT22;13951;49.516;6.094;2023-12-14T00:55:36;7.70;99.90
26212;DHT22;13951;49.516;6.094;2023-12-14T00:58:09;7.70;99.90
26212;DHT22;13951;49.516;6.094;2023-12-14T01:00:43;7.80;99.90
26212;DHT22;13951;49.516;6.094;2023-12-14T01:03:16;7.80;99.90
26212;DHT22;13951;49.516;6.094;2023-12-14T01:05:49;7.80;99.90
26212;DHT22;13951;49.516;6.094;2023-12-14T01:08:23;7.80;99.90
26212;DHT22;13951;49.516;6.094;2023-12-14T01:10:56;7.80;99.90
26212;DHT22;13951;49.516;6.094;2023-12-14T01:13:29;7.80;99.90
26212;DHT22;13951;49.516;6.094;2023-12-14T01:16:03;7.80;99.90
26212;DHT22;13951;49.516;6.094;2023-12-14T01:18:37;7.80;99.90
26212;DHT22;13951;49.516;6.094;2023-12-14T01:21:10;7.90;99.90
26212;DHT22;13951;49.516;6.094;2023-12-14T01:23:43;7.90;99.90
26212;DHT22;13951;49.516;6.094;2023-12-14T01:26:17;7.90;99.90
26212;DHT22;13951;49.516;6.094;2023-12-14T01:28:51;7.90;99.90
26212;DHT22;13951;49.516;6.094;2023-12-14T01:31:25;7.90;99.90
26212;DHT22;13951;49.516;6.094;2023-12-14T01:33:58;7.90;99.90
26212;DHT22;13951;49.516;6.094;2023-12-14T01:36:32;7.90;99.90
26212;DHT22;13951;49.516;6.094;2023-12-14T01:39:05;7.90;99.90
26212;DHT22;13951;49.516;6.094;2023-12-14T01:41:38;7.90;99.90
26212;DHT22;13951;49.516;6.094;2023-12-14T01:44:12;7.90;99.90
26212;DHT22;13951;49.516;6.094;2023-12-14T01:46:46;7.90;99.90
26212;DHT22;13951;49.516;6.094;2023-12-14T01:49:19;7.90;99.90
26212;DHT22;13951;49.516;6.094;2023-12-14T01:51:52;7.90;99.90
26212;DHT22;13951;49.516;6.094;2023-12-14T01:54:25;7.90;99.90
26212;DHT22;13951;49.516;6.094;2023-12-14T01:56:59;8.00;99.90
26212;DHT22;13951;49.516;6.094;2023-12-14T01:59:32;8.00;99.90
26212;DHT22;13951;49.516;6.094;2023-12-14T02:02:06;7.90;99.90
26212;DHT22;13951;49.516;6.094;2023-12-14T02:04:40;8.00;99.90
26212;DHT22;13951;49.516;6.094;2023-12-14T02:07:13;8.00;99.90
26212;DHT22;13951;49.516;6.094;2023-12-14T02:09:46;8.00;99.90
26212;DHT22;13951;49.516;6.094;2023-12-14T02:12:20;8.00;99.90
26212;DHT22;13951;49.516;6.094;2023-12-14T02:14:56;8.00;99.90
26212;DHT22;13951;49.516;6.094;2023-12-14T02:17:29;8.00;99.90
26212;DHT22;13951;49.516;6.094;2023-12-14T02:20:03;8.00;99.90
26212;DHT22;13951;49.516;6.094;2023-12-14T02:25:25;8.00;99.90
26212;DHT22;13951;49.516;6.094;2023-12-14T02:27:59;8.00;99.90
26212;DHT22;13951;49.516;6.094;2023-12-14T02:30:32;8.00;99.90
26212;DHT22;13951;49.516;6.094;2023-12-14T02:33:05;7.90;99.90
26212;DHT22;13951;49.516;6.094;2023-12-14T02:35:39;7.90;99.90
26212;DHT22;13951;49.516;6.094;2023-12-14T02:38:12;7.90;99.90
26212;DHT22;13951;49.516;6.094;2023-12-14T02:40:46;7.90;99.90
26212;DHT22;13951;49.516;6.094;2023-12-14T02:43:19;7.90;99.90
26212;DHT22;13951;49.516;6.094;2023-12-14T02:45:53;7.90;99.90
26212;DHT22;13951;49.516;6.094;2023-12-14T02:48:28;7.90;99.90
26212;DHT22;13951;49.516;6.094;2023-12-14T02:51:05;7.90;99.90
26212;DHT22;13951;49.516;6.094;2023-12-14T02:53:38;7.90;99.90
26212;DHT22;13951;49.516;6.094;2023-12-14T02:56:11;7.80;99.90
26212;DHT22;13951;49.516;6.094;2023-12-14T02:58:45;7.80;99.90
26212;DHT22;13951;49.516;6.094;2023-12-14T03:01:22;7.80;99.90
26212;DHT22;13951;49.516;6.094;2023-12-14T03:03:55;7.80;99.90
26212;DHT22;13951;49.516;6.094;2023-12-14T03:06:28;7.80;99.90
26212;DHT22;13951;49.516;6.094;2023-12-14T03:09:02;7.80;99.90
26212;DHT22;13951;49.516;6.094;2023-12-14T03:11:35;7.80;99.90
26212;DHT22;13951;49.516;6.094;2023-12-14T03:14:08;7.90;99.90
26212;DHT22;13951;49.516;6.094;2023-12-14T03:16:41;7.90;99.90
26212;DHT22;13951;49.516;6.094;2023-12-14T03:19:15;7.90;99.90
26212;DHT22;13951;49.516;6.094;2023-12-14T03:21:49;7.90;99.90
26212;DHT22;13951;49.516;6.094;2023-12-14T03:24:22;7.90;99.90
26212;DHT22;13951;49.516;6.094;2023-12-14T03:26:55;7.90;99.90
26212;DHT22;13951;49.516;6.094;2023-12-14T03:29:29;7.90;99.90
26212;DHT22;13951;49.516;6.094;2023-12-14T03:32:02;7.90;99.90
26212;DHT22;13951;49.516;6.094;2023-12-14T03:34:35;7.90;99.90
26212;DHT22;13951;49.516;6.094;2023-12-14T03:37:09;7.90;99.90
26212;DHT22;13951;49.516;6.094;2023-12-14T03:39:42;7.90;99.90
26212;DHT22;13951;49.516;6.094;2023-12-14T03:42:15;7.80;99.90
26212;DHT22;13951;49.516;6.094;2023-12-14T03:44:48;7.80;99.90
26212;DHT22;13951;49.516;6.094;2023-12-14T03:47:21;7.90;99.90
26212;DHT22;13951;49.516;6.094;2023-12-14T03:49:55;7.90;99.90
26212;DHT22;13951;49.516;6.094;2023-12-14T03:52:28;7.90;99.90
26212;DHT22;13951;49.516;6.094;2023-12-14T03:55:05;7.90;99.90
26212;DHT22;13951;49.516;6.094;2023-12-14T03:57:38;7.90;99.90
26212;DHT22;13951;49.516;6.094;2023-12-14T04:00:13;7.80;99.90
26212;DHT22;13951;49.516;6.094;2023-12-14T04:02:46;7.90;99.90
26212;DHT22;13951;49.516;6.094;2023-12-14T04:05:19;7.80;99.90
26212;DHT22;13951;49.516;6.094;2023-12-14T04:07:53;7.90;99.90
26212;DHT22;13951;49.516;6.094;2023-12-14T04:10:26;7.90;99.90
26212;DHT22;13951;49.516;6.094;2023-12-14T04:12:59;7.80;99.90
26212;DHT22;13951;49.516;6.094;2023-12-14T04:15:33;7.80;99.90
26212;DHT22;13951;49.516;6.094;2023-12-14T04:18:09;7.80;99.90
26212;DHT22;13951;49.516;6.094;2023-12-14T04:20:42;7.80;99.90
26212;DHT22;13951;49.516;6.094;2023-12-14T04:23:16;7.80;99.90
26212;DHT22;13951;49.516;6.094;2023-12-14T04:25:49;7.80;99.90
26212;DHT22;13951;49.516;6.094;2023-12-14T04:28:22;7.80;99.90
26212;DHT22;13951;49.516;6.094;2023-12-14T04:30:55;7.70;99.90
26212;DHT22;13951;49.516;6.094;2023-12-14T04:33:29;7.70;99.90
26212;DHT22;13951;49.516;6.094;2023-12-14T04:36:03;7.70;99.90
26212;DHT22;13951;49.516;6.094;2023-12-14T04:38:36;7.70;99.90
26212;DHT22;13951;49.516;6.094;2023-12-14T04:41:10;7.70;99.90
26212;DHT22;13951;49.516;6.094;2023-12-14T04:43:43;7.60;99.90
26212;DHT22;13951;49.516;6.094;2023-12-14T04:46:16;7.60;99.90
26212;DHT22;13951;49.516;6.094;2023-12-14T04:48:50;7.60;99.90
26212;DHT22;13951;49.516;6.094;2023-12-14T04:51:23;7.60;99.90
26212;DHT22;13951;49.516;6.094;2023-12-14T04:53:59;7.70;99.90
26212;DHT22;13951;49.516;6.094;2023-12-14T04:56:32;7.70;99.90
26212;DHT22;13951;49.516;6.094;2023-12-14T04:59:06;7.70;99.90
26212;DHT22;13951;49.516;6.094;2023-12-14T05:01:39;7.70;99.90
26212;DHT22;13951;49.516;6.094;2023-12-14T05:04:12;7.60;99.90
26212;DHT22;13951;49.516;6.094;2023-12-14T05:06:46;7.70;99.90
26212;DHT22;13951;49.516;6.094;2023-12-14T05:09:19;7.70;99.90
26212;DHT22;13951;49.516;6.094;2023-12-14T05:11:52;7.70;99.90
26212;DHT22;13951;49.516;6.094;2023-12-14T05:14:26;7.70;99.90
26212;DHT22;13951;49.516;6.094;2023-12-14T05:17:01;7.70;99.90
26212;DHT22;13951;49.516;6.094;2023-12-14T05:19:35;7.70;99.90
26212;DHT22;13951;49.516;6.094;2023-12-14T05:22:09;7.70;99.90
26212;DHT22;13951;49.516;6.094;2023-12-14T05:24:46;7.70;99.90
26212;DHT22;13951;49.516;6.094;2023-12-14T05:27:19;7.70;99.90
26212;DHT22;13951;49.516;6.094;2023-12-14T05:29:53;7.70;99.90
26212;DHT22;13951;49.516;6.094;2023-12-14T05:32:26;7.70;99.90
26212;DHT22;13951;49.516;6.094;2023-12-14T05:34:59;7.70;99.90
26212;DHT22;13951;49.516;6.094;2023-12-14T05:37:33;7.70;99.90
26212;DHT22;13951;49.516;6.094;2023-12-14T05:40:07;7.70;99.90
26212;DHT22;13951;49.516;6.094;2023-12-14T05:42:40;7.70;99.90
26212;DHT22;13951;49.516;6.094;2023-12-14T05:45:13;7.70;99.90
26212;DHT22;13951;49.516;6.094;2023-12-14T05:47:46;7.70;99.90
26212;DHT22;13951;49.516;6.094;2023-12-14T05:50:21;7.70;99.90
26212;DHT22;13951;49.516;6.094;2023-12-14T05:52:55;7.70;99.90
26212;DHT22;13951;49.516;6.094;2023-12-14T05:55:28;7.70;99.90
26212;DHT22;13951;49.516;6.094;2023-12-14T05:58:01;7.70;99.90
26212;DHT22;13951;49.516;6.094;2023-12-14T06:00:35;7.70;99.90
26212;DHT22;13951;49.516;6.094;2023-12-14T06:03:09;7.70;99.90
26212;DHT22;13951;49.516;6.094;2023-12-14T06:05:42;7.70;99.90
26212;DHT22;13951;49.516;6.094;2023-12-14T06:08:15;7.70;99.90
26212;DHT22;13951;49.516;6.094;2023-12-14T06:10:48;7.70;99.90
26212;DHT22;13951;49.516;6.094;2023-12-14T06:13:22;7.70;99.90
26212;DHT22;13951;49.516;6.094;2023-12-14T06:15:55;7.70;99.90
26212;DHT22;13951;49.516;6.094;2023-12-14T06:18:28;7.70;99.90
26212;DHT22;13951;49.516;6.094;2023-12-14T06:21:01;7.70;99.90
26212;DHT22;13951;49.516;6.094;2023-12-14T06:23:37;7.70;99.90
26212;DHT22;13951;49.516;6.094;2023-12-14T06:26:11;7.70;99.90
26212;DHT22;13951;49.516;6.094;2023-12-14T06:28:44;7.70;99.90
26212;DHT22;13951;49.516;6.094;2023-12-14T06:31:18;7.70;99.90
26212;DHT22;13951;49.516;6.094;2023-12-14T06:33:54;7.70;99.90
26212;DHT22;13951;49.516;6.094;2023-12-14T06:36:33;7.60;99.90
26212;DHT22;13951;49.516;6.094;2023-12-14T06:39:07;7.60;99.90
26212;DHT22;13951;49.516;6.094;2023-12-14T06:41:40;7.60;99.90
26212;DHT22;13951;49.516;6.094;2023-12-14T06:44:14;7.60;99.90
26212;DHT22;13951;49.516;6.094;2023-12-14T06:46:47;7.60;99.90
26212;DHT22;13951;49.516;6.094;2023-12-14T06:49:20;7.60;99.90
26212;DHT22;13951;49.516;6.094;2023-12-14T06:51:54;7.60;99.90
26212;DHT22;13951;49.516;6.094;2023-12-14T06:54:27;7.60;99.90
26212;DHT22;13951;49.516;6.094;2023-12-14T06:57:00;7.60;99.90
26212;DHT22;13951;49.516;6.094;2023-12-14T06:59:33;7.60;99.90
26212;DHT22;13951;49.516;6.094;2023-12-14T07:02:07;7.60;99.90
26212;DHT22;13951;49.516;6.094;2023-12-14T07:04:40;7.60;99.90
26212;DHT22;13951;49.516;6.094;2023-12-14T07:07:15;7.60;99.90
26212;DHT22;13951;49.516;6.094;2023-12-14T07:09:48;7.60;99.90
26212;DHT22;13951;49.516;6.094;2023-12-14T07:12:21;7.60;99.90
26212;DHT22;13951;49.516;6.094;2023-12-14T07:14:54;7.60;99.90
26212;DHT22;13951;49.516;6.094;2023-12-14T07:17:27;7.60;99.90
26212;DHT22;13951;49.516;6.094;2023-12-14T07:20:01;7.60;99.90
26212;DHT22;13951;49.516;6.094;2023-12-14T07:22:34;7.60;99.90
26212;DHT22;13951;49.516;6.094;2023-12-14T07:25:08;7.60;99.90
26212;DHT22;13951;49.516;6.094;2023-12-14T07:27:41;7.60;99.90
26212;DHT22;13951;49.516;6.094;2023-12-14T07:30:16;7.50;99.90
26212;DHT22;13951;49.516;6.094;2023-12-14T07:32:49;7.50;99.90
26212;DHT22;13951;49.516;6.094;2023-12-14T07:35:24;7.50;99.90
26212;DHT22;13951;49.516;6.094;2023-12-14T07:37:57;7.50;99.90
26212;DHT22;13951;49.516;6.094;2023-12-14T07:40:30;7.50;99.90
26212;DHT22;13951;49.516;6.094;2023-12-14T07:43:04;7.50;99.90
26212;DHT22;13951;49.516;6.094;2023-12-14T07:45:37;7.50;99.90
26212;DHT22;13951;49.516;6.094;2023-12-14T07:48:10;7.60;99.90
26212;DHT22;13951;49.516;6.094;2023-12-14T07:50:43;7.50;99.90
26212;DHT22;13951;49.516;6.094;2023-12-14T07:53:16;7.50;99.90
26212;DHT22;13951;49.516;6.094;2023-12-14T07:55:49;7.50;99.90
26212;DHT22;13951;49.516;6.094;2023-12-14T07:58:23;7.50;99.90
26212;DHT22;13951;49.516;6.094;2023-12-14T08:00:56;7.60;99.90
26212;DHT22;13951;49.516;6.094;2023-12-14T08:03:29;7.60;99.90
26212;DHT22;13951;49.516;6.094;2023-12-14T08:06:03;7.60;99.90
26212;DHT22;13951;49.516;6.094;2023-12-14T08:08:36;7.60;99.90
26212;DHT22;13951;49.516;6.094;2023-12-14T08:11:10;7.60;99.90
26212;DHT22;13951;49.516;6.094;2023-12-14T08:13:43;7.60;99.90
26212;DHT22;13951;49.516;6.094;2023-12-14T08:16:17;7.60;99.90
26212;DHT22;13951;49.516;6.094;2023-12-14T08:18:50;7.60;99.90
26212;DHT22;13951;49.516;6.094;2023-12-14T08:21:24;7.60;99.90
26212;DHT22;13951;49.516;6.094;2023-12-14T08:23:57;7.60;99.90
26212;DHT22;13951;49.516;6.094;2023-12-14T08:26:30;7.60;99.90
26212;DHT22;13951;49.516;6.094;2023-12-14T08:29:03;7.70;99.90
26212;DHT22;13951;49.516;6.094;2023-12-14T08:31:37;7.70;99.90
26212;DHT22;13951;49.516;6.094;2023-12-14T08:34:10;7.70;99.90
26212;DHT22;13951;49.516;6.094;2023-12-14T08:36:44;7.70;99.90
26212;DHT22;13951;49.516;6.094;2023-12-14T08:39:17;7.70;99.90
26212;DHT22;13951;49.516;6.094;2023-12-14T08:41:51;7.80;99.90
26212;DHT22;13951;49.516;6.094;2023-12-14T08:44:24;7.70;99.90
26212;DHT22;13951;49.516;6.094;2023-12-14T08:46:57;7.80;99.90
26212;DHT22;13951;49.516;6.094;2023-12-14T08:49:30;7.80;99.90
26212;DHT22;13951;49.516;6.094;2023-12-14T08:52:04;7.70;99.90
26212;DHT22;13951;49.516;6.094;2023-12-14T08:54:37;7.80;99.90
26212;DHT22;13951;49.516;6.094;2023-12-14T08:57:10;7.80;99.90
26212;DHT22;13951;49.516;6.094;2023-12-14T08:59:43;7.80;99.90
26212;DHT22;13951;49.516;6.094;2023-12-14T09:02:17;7.90;99.90
26212;DHT22;13951;49.516;6.094;2023-12-14T09:04:50;7.90;99.90
26212;DHT22;13951;49.516;6.094;2023-12-14T09:07:24;7.90;99.90
26212;DHT22;13951;49.516;6.094;2023-12-14T09:09:58;7.90;99.90
26212;DHT22;13951;49.516;6.094;2023-12-14T09:12:31;7.90;99.90
26212;DHT22;13951;49.516;6.094;2023-12-14T09:15:05;7.90;99.90
26212;DHT22;13951;49.516;6.094;2023-12-14T09:17:38;8.00;99.90
26212;DHT22;13951;49.516;6.094;2023-12-14T09:20:12;8.00;99.90
26212;DHT22;13951;49.516;6.094;2023-12-14T09:22:46;8.00;99.90
26212;DHT22;13951;49.516;6.094;2023-12-14T09:25:20;8.00;99.90
26212;DHT22;13951;49.516;6.094;2023-12-14T09:27:53;8.10;99.90
26212;DHT22;13951;49.516;6.094;2023-12-14T09:30:26;8.10;99.90
26212;DHT22;13951;49.516;6.094;2023-12-14T09:33:00;8.10;99.90
26212;DHT22;13951;49.516;6.094;2023-12-14T09:35:33;8.10;99.90
26212;DHT22;13951;49.516;6.094;2023-12-14T09:38:06;8.10;99.90
26212;DHT22;13951;49.516;6.094;2023-12-14T09:40:42;8.10;99.90
26212;DHT22;13951;49.516;6.094;2023-12-14T09:43:15;8.10;99.90
26212;DHT22;13951;49.516;6.094;2023-12-14T09:45:49;8.20;99.90
26212;DHT22;13951;49.516;6.094;2023-12-14T09:48:23;8.20;99.90
26212;DHT22;13951;49.516;6.094;2023-12-14T09:50:57;8.20;99.90
26212;DHT22;13951;49.516;6.094;2023-12-14T09:53:30;8.20;99.90
26212;DHT22;13951;49.516;6.094;2023-12-14T09:56:04;8.20;99.90
26212;DHT22;13951;49.516;6.094;2023-12-14T09:58:37;8.20;99.90
26212;DHT22;13951;49.516;6.094;2023-12-14T10:01:26;8.30;99.90
26212;DHT22;13951;49.516;6.094;2023-12-14T10:04:10;8.30;99.90
26212;DHT22;13951;49.516;6.094;2023-12-14T10:06:46;8.40;99.90
26212;DHT22;13951;49.516;6.094;2023-12-14T10:09:23;8.50;99.90
26212;DHT22;13951;49.516;6.094;2023-12-14T10:12:03;8.60;99.90
26212;DHT22;13951;49.516;6.094;2023-12-14T10:14:37;8.70;99.90
26212;DHT22;13951;49.516;6.094;2023-12-14T10:17:22;8.70;99.90
26212;DHT22;13951;49.516;6.094;2023-12-14T10:20:05;8.80;99.90
26212;DHT22;13951;49.516;6.094;2023-12-14T10:22:38;8.80;99.90
26212;DHT22;13951;49.516;6.094;2023-12-14T10:25:11;8.80;99.90
26212;DHT22;13951;49.516;6.094;2023-12-14T10:27:47;8.90;99.90
26212;DHT22;13951;49.516;6.094;2023-12-14T10:30:21;8.90;99.90
26212;DHT22;13951;49.516;6.094;2023-12-14T10:32:54;8.90;99.90
26212;DHT22;13951;49.516;6.094;2023-12-14T10:35:27;8.90;99.90
26212;DHT22;13951;49.516;6.094;2023-12-14T10:38:04;8.90;99.90
26212;DHT22;13951;49.516;6.094;2023-12-14T10:40:38;8.80;99.90
26212;DHT22;13951;49.516;6.094;2023-12-14T10:43:17;8.80;99.90
26212;DHT22;13951;49.516;6.094;2023-12-14T10:46:10;8.70;99.90
26212;DHT22;13951;49.516;6.094;2023-12-14T10:48:45;8.70;99.90
26212;DHT22;13951;49.516;6.094;2023-12-14T10:51:22;8.70;99.90
26212;DHT22;13951;49.516;6.094;2023-12-14T10:53:57;8.70;99.90
26212;DHT22;13951;49.516;6.094;2023-12-14T10:56:31;8.70;99.90
26212;DHT22;13951;49.516;6.094;2023-12-14T10:59:04;8.80;99.90
